sensor_id;sensor_type;location;lat;lon;timestamp;P1;durP1;ratioP1;P2;durP2;ratioP2
58472;SDS011;44775;51.564;5.460;2023-05-10T00:00:30;37.75;;;19.90;;
58472;SDS011;44775;51.564;5.460;2023-05-10T00:02:56;43.92;;;21.27;;
58472;SDS011;44775;51.564;5.460;2023-05-10T00:05:21;38.03;;;20.88;;
58472;SDS011;44775;51.564;5.460;2023-05-10T00:07:46;43.45;;;20.10;;
58472;SDS011;44775;51.564;5.460;2023-05-10T00:10:12;42.85;;;21.85;;
58472;SDS011;44775;51.564;5.460;2023-05-10T00:12:37;40.67;;;21.77;;
58472;SDS011;44775;51.564;5.460;2023-05-10T00:15:02;40.45;;;22.05;;
58472;SDS011;44775;51.564;5.460;2023-05-10T00:17:28;47.00;;;24.17;;
58472;SDS011;44775;51.564;5.460;2023-05-10T00:19:53;46.08;;;22.92;;
58472;SDS011;44775;51.564;5.460;2023-05-10T00:22:19;45.38;;;22.95;;
58472;SDS011;44775;51.564;5.460;2023-05-10T00:24:45;50.38;;;23.17;;
58472;SDS011;44775;51.564;5.460;2023-05-10T00:27:10;48.28;;;23.15;;
58472;SDS011;44775;51.564;5.460;2023-05-10T00:29:36;50.90;;;24.35;;
58472;SDS011;44775;51.564;5.460;2023-05-10T00:32:01;49.80;;;23.98;;
58472;SDS011;44775;51.564;5.460;2023-05-10T00:34:26;51.45;;;24.67;;
58472;SDS011;44775;51.564;5.460;2023-05-10T00:36:52;45.58;;;23.02;;
58472;SDS011;44775;51.564;5.460;2023-05-10T00:39:17;47.83;;;23.33;;
58472;SDS011;44775;51.564;5.460;2023-05-10T00:41:42;57.05;;;26.15;;
58472;SDS011;44775;51.564;5.460;2023-05-10T00:44:07;48.70;;;25.13;;
58472;SDS011;44775;51.564;5.460;2023-05-10T00:46:33;57.20;;;25.85;;
58472;SDS011;44775;51.564;5.460;2023-05-10T00:48:58;55.22;;;25.42;;
58472;SDS011;44775;51.564;5.460;2023-05-10T00:51:24;58.00;;;26.05;;
58472;SDS011;44775;51.564;5.460;2023-05-10T00:53:49;60.80;;;26.65;;
58472;SDS011;44775;51.564;5.460;2023-05-10T00:56:16;61.17;;;27.52;;
58472;SDS011;44775;51.564;5.460;2023-05-10T00:58:41;62.08;;;26.95;;
58472;SDS011;44775;51.564;5.460;2023-05-10T01:01:07;63.95;;;28.02;;
58472;SDS011;44775;51.564;5.460;2023-05-10T01:03:34;68.57;;;30.13;;
58472;SDS011;44775;51.564;5.460;2023-05-10T01:06:00;64.13;;;28.63;;
58472;SDS011;44775;51.564;5.460;2023-05-10T01:08:25;69.63;;;29.95;;
58472;SDS011;44775;51.564;5.460;2023-05-10T01:10:51;66.40;;;28.80;;
58472;SDS011;44775;51.564;5.460;2023-05-10T01:13:21;76.97;;;31.98;;
58472;SDS011;44775;51.564;5.460;2023-05-10T01:15:55;74.82;;;30.80;;
58472;SDS011;44775;51.564;5.460;2023-05-10T01:18:21;70.47;;;31.10;;
58472;SDS011;44775;51.564;5.460;2023-05-10T01:20:47;82.68;;;32.95;;
58472;SDS011;44775;51.564;5.460;2023-05-10T01:26:14;78.03;;;32.05;;
58472;SDS011;44775;51.564;5.460;2023-05-10T01:31:18;79.13;;;32.60;;
58472;SDS011;44775;51.564;5.460;2023-05-10T01:36:48;100.05;;;36.40;;
58472;SDS011;44775;51.564;5.460;2023-05-10T01:42:05;102.00;;;35.42;;
58472;SDS011;44775;51.564;5.460;2023-05-10T01:47:30;126.75;;;39.72;;
58472;SDS011;44775;51.564;5.460;2023-05-10T01:50:02;131.60;;;39.08;;
58472;SDS011;44775;51.564;5.460;2023-05-10T01:52:38;125.22;;;39.40;;
58472;SDS011;44775;51.564;5.460;2023-05-10T01:55:11;130.45;;;40.22;;
58472;SDS011;44775;51.564;5.460;2023-05-10T01:57:42;135.18;;;42.67;;
58472;SDS011;44775;51.564;5.460;2023-05-10T02:02:39;127.45;;;41.97;;
58472;SDS011;44775;51.564;5.460;2023-05-10T02:05:07;128.57;;;41.67;;
58472;SDS011;44775;51.564;5.460;2023-05-10T02:07:35;132.90;;;44.78;;
58472;SDS011;44775;51.564;5.460;2023-05-10T02:10:02;133.18;;;42.70;;
58472;SDS011;44775;51.564;5.460;2023-05-10T02:12:29;133.90;;;43.25;;
58472;SDS011;44775;51.564;5.460;2023-05-10T02:14:57;118.97;;;38.70;;
58472;SDS011;44775;51.564;5.460;2023-05-10T02:17:26;114.00;;;40.80;;
58472;SDS011;44775;51.564;5.460;2023-05-10T02:19:53;114.32;;;42.95;;
58472;SDS011;44775;51.564;5.460;2023-05-10T02:22:20;119.00;;;43.28;;
58472;SDS011;44775;51.564;5.460;2023-05-10T02:24:47;107.82;;;40.88;;
58472;SDS011;44775;51.564;5.460;2023-05-10T02:27:14;113.53;;;42.28;;
58472;SDS011;44775;51.564;5.460;2023-05-10T02:29:41;106.03;;;43.53;;
58472;SDS011;44775;51.564;5.460;2023-05-10T02:32:06;92.65;;;42.72;;
58472;SDS011;44775;51.564;5.460;2023-05-10T02:34:34;103.45;;;44.55;;
58472;SDS011;44775;51.564;5.460;2023-05-10T02:37:01;104.80;;;45.10;;
58472;SDS011;44775;51.564;5.460;2023-05-10T02:39:27;103.68;;;43.83;;
58472;SDS011;44775;51.564;5.460;2023-05-10T02:41:54;112.30;;;44.97;;
58472;SDS011;44775;51.564;5.460;2023-05-10T02:44:20;100.45;;;43.50;;
58472;SDS011;44775;51.564;5.460;2023-05-10T02:46:48;100.07;;;42.95;;
58472;SDS011;44775;51.564;5.460;2023-05-10T02:49:13;110.78;;;43.63;;
58472;SDS011;44775;51.564;5.460;2023-05-10T02:51:47;108.68;;;45.80;;
58472;SDS011;44775;51.564;5.460;2023-05-10T02:54:18;108.82;;;43.28;;
58472;SDS011;44775;51.564;5.460;2023-05-10T02:56:53;108.65;;;44.53;;
58472;SDS011;44775;51.564;5.460;2023-05-10T02:59:22;112.40;;;45.28;;
58472;SDS011;44775;51.564;5.460;2023-05-10T03:01:48;106.50;;;42.88;;
58472;SDS011;44775;51.564;5.460;2023-05-10T03:04:13;117.28;;;45.65;;
58472;SDS011;44775;51.564;5.460;2023-05-10T03:06:38;110.47;;;45.40;;
58472;SDS011;44775;51.564;5.460;2023-05-10T03:09:04;111.93;;;45.55;;
58472;SDS011;44775;51.564;5.460;2023-05-10T03:11:43;120.18;;;47.85;;
58472;SDS011;44775;51.564;5.460;2023-05-10T03:15:22;116.32;;;46.78;;
58472;SDS011;44775;51.564;5.460;2023-05-10T03:17:41;121.45;;;47.28;;
58472;SDS011;44775;51.564;5.460;2023-05-10T03:20:09;121.70;;;47.88;;
58472;SDS011;44775;51.564;5.460;2023-05-10T03:22:46;123.03;;;48.33;;
58472;SDS011;44775;51.564;5.460;2023-05-10T03:25:15;120.78;;;48.58;;
58472;SDS011;44775;51.564;5.460;2023-05-10T03:27:42;119.88;;;48.08;;
58472;SDS011;44775;51.564;5.460;2023-05-10T03:30:10;119.68;;;49.08;;
58472;SDS011;44775;51.564;5.460;2023-05-10T03:32:37;121.65;;;49.97;;
58472;SDS011;44775;51.564;5.460;2023-05-10T03:35:10;127.82;;;47.90;;
58472;SDS011;44775;51.564;5.460;2023-05-10T03:37:37;125.18;;;48.95;;
58472;SDS011;44775;51.564;5.460;2023-05-10T03:40:02;120.75;;;48.17;;
58472;SDS011;44775;51.564;5.460;2023-05-10T03:42:28;120.57;;;47.50;;
58472;SDS011;44775;51.564;5.460;2023-05-10T03:44:54;120.20;;;48.85;;
58472;SDS011;44775;51.564;5.460;2023-05-10T03:47:19;108.82;;;43.67;;
58472;SDS011;44775;51.564;5.460;2023-05-10T03:49:45;107.32;;;44.08;;
58472;SDS011;44775;51.564;5.460;2023-05-10T03:52:10;107.38;;;44.45;;
58472;SDS011;44775;51.564;5.460;2023-05-10T03:54:35;99.53;;;43.47;;
58472;SDS011;44775;51.564;5.460;2023-05-10T03:57:01;103.75;;;45.30;;
58472;SDS011;44775;51.564;5.460;2023-05-10T03:59:27;101.05;;;43.10;;
58472;SDS011;44775;51.564;5.460;2023-05-10T04:01:53;108.18;;;46.22;;
58472;SDS011;44775;51.564;5.460;2023-05-10T04:04:18;101.97;;;44.80;;
58472;SDS011;44775;51.564;5.460;2023-05-10T04:06:45;101.78;;;43.70;;
58472;SDS011;44775;51.564;5.460;2023-05-10T04:09:11;99.43;;;42.42;;
58472;SDS011;44775;51.564;5.460;2023-05-10T04:11:36;100.45;;;43.60;;
58472;SDS011;44775;51.564;5.460;2023-05-10T04:14:01;98.00;;;41.80;;
58472;SDS011;44775;51.564;5.460;2023-05-10T04:16:27;96.95;;;41.70;;
58472;SDS011;44775;51.564;5.460;2023-05-10T04:18:52;102.47;;;42.30;;
58472;SDS011;44775;51.564;5.460;2023-05-10T04:21:17;110.05;;;44.05;;
58472;SDS011;44775;51.564;5.460;2023-05-10T04:23:43;101.28;;;41.67;;
58472;SDS011;44775;51.564;5.460;2023-05-10T04:26:08;113.35;;;48.05;;
58472;SDS011;44775;51.564;5.460;2023-05-10T04:28:33;74.43;;;33.13;;
58472;SDS011;44775;51.564;5.460;2023-05-10T04:31:05;96.88;;;42.08;;
58472;SDS011;44775;51.564;5.460;2023-05-10T04:33:32;100.45;;;42.38;;
58472;SDS011;44775;51.564;5.460;2023-05-10T04:35:58;89.10;;;39.75;;
58472;SDS011;44775;51.564;5.460;2023-05-10T04:38:23;92.35;;;40.47;;
58472;SDS011;44775;51.564;5.460;2023-05-10T04:40:49;78.50;;;37.03;;
58472;SDS011;44775;51.564;5.460;2023-05-10T04:43:14;78.20;;;36.13;;
58472;SDS011;44775;51.564;5.460;2023-05-10T04:45:40;74.38;;;34.15;;
58472;SDS011;44775;51.564;5.460;2023-05-10T04:48:05;73.10;;;33.55;;
58472;SDS011;44775;51.564;5.460;2023-05-10T04:50:30;70.05;;;34.67;;
58472;SDS011;44775;51.564;5.460;2023-05-10T04:52:56;69.13;;;33.50;;
58472;SDS011;44775;51.564;5.460;2023-05-10T04:55:21;61.03;;;28.38;;
58472;SDS011;44775;51.564;5.460;2023-05-10T04:57:47;64.63;;;30.25;;
58472;SDS011;44775;51.564;5.460;2023-05-10T05:00:12;62.70;;;29.30;;
58472;SDS011;44775;51.564;5.460;2023-05-10T05:02:38;59.85;;;30.40;;
58472;SDS011;44775;51.564;5.460;2023-05-10T05:05:07;60.67;;;30.15;;
58472;SDS011;44775;51.564;5.460;2023-05-10T05:07:33;61.53;;;29.58;;
58472;SDS011;44775;51.564;5.460;2023-05-10T05:09:58;56.20;;;28.83;;
58472;SDS011;44775;51.564;5.460;2023-05-10T05:12:23;54.30;;;27.55;;
58472;SDS011;44775;51.564;5.460;2023-05-10T05:14:48;60.13;;;29.65;;
58472;SDS011;44775;51.564;5.460;2023-05-10T05:17:14;50.60;;;24.73;;
58472;SDS011;44775;51.564;5.460;2023-05-10T05:19:39;55.10;;;28.65;;
58472;SDS011;44775;51.564;5.460;2023-05-10T05:22:06;57.22;;;27.75;;
58472;SDS011;44775;51.564;5.460;2023-05-10T05:24:35;60.25;;;28.98;;
58472;SDS011;44775;51.564;5.460;2023-05-10T05:27:02;56.45;;;28.77;;
58472;SDS011;44775;51.564;5.460;2023-05-10T05:29:27;54.42;;;27.25;;
58472;SDS011;44775;51.564;5.460;2023-05-10T05:31:53;52.67;;;27.27;;
58472;SDS011;44775;51.564;5.460;2023-05-10T05:34:18;52.03;;;27.00;;
58472;SDS011;44775;51.564;5.460;2023-05-10T05:36:45;50.65;;;26.63;;
58472;SDS011;44775;51.564;5.460;2023-05-10T05:39:10;50.53;;;27.05;;
58472;SDS011;44775;51.564;5.460;2023-05-10T05:41:35;51.28;;;27.55;;
58472;SDS011;44775;51.564;5.460;2023-05-10T05:44:01;48.78;;;26.58;;
58472;SDS011;44775;51.564;5.460;2023-05-10T05:46:26;47.35;;;24.88;;
58472;SDS011;44775;51.564;5.460;2023-05-10T05:48:51;48.45;;;26.33;;
58472;SDS011;44775;51.564;5.460;2023-05-10T05:51:17;47.42;;;25.58;;
58472;SDS011;44775;51.564;5.460;2023-05-10T05:53:42;45.45;;;25.02;;
58472;SDS011;44775;51.564;5.460;2023-05-10T05:56:07;48.40;;;26.48;;
58472;SDS011;44775;51.564;5.460;2023-05-10T05:58:34;45.35;;;25.38;;
58472;SDS011;44775;51.564;5.460;2023-05-10T06:00:59;49.75;;;26.80;;
58472;SDS011;44775;51.564;5.460;2023-05-10T06:03:24;45.08;;;24.70;;
58472;SDS011;44775;51.564;5.460;2023-05-10T06:05:49;46.22;;;25.45;;
58472;SDS011;44775;51.564;5.460;2023-05-10T06:08:15;43.70;;;24.45;;
58472;SDS011;44775;51.564;5.460;2023-05-10T06:10:40;45.58;;;25.85;;
58472;SDS011;44775;51.564;5.460;2023-05-10T06:13:05;41.38;;;24.35;;
58472;SDS011;44775;51.564;5.460;2023-05-10T06:15:31;42.30;;;24.67;;
58472;SDS011;44775;51.564;5.460;2023-05-10T06:17:57;43.47;;;24.40;;
58472;SDS011;44775;51.564;5.460;2023-05-10T06:20:22;41.38;;;23.83;;
58472;SDS011;44775;51.564;5.460;2023-05-10T06:22:48;39.58;;;23.15;;
58472;SDS011;44775;51.564;5.460;2023-05-10T06:25:13;42.03;;;24.33;;
58472;SDS011;44775;51.564;5.460;2023-05-10T06:27:39;32.25;;;21.17;;
58472;SDS011;44775;51.564;5.460;2023-05-10T06:30:05;41.50;;;23.88;;
58472;SDS011;44775;51.564;5.460;2023-05-10T06:32:31;43.30;;;24.13;;
58472;SDS011;44775;51.564;5.460;2023-05-10T06:34:56;30.13;;;17.98;;
58472;SDS011;44775;51.564;5.460;2023-05-10T06:37:21;39.92;;;24.50;;
58472;SDS011;44775;51.564;5.460;2023-05-10T06:39:47;41.17;;;24.55;;
58472;SDS011;44775;51.564;5.460;2023-05-10T06:42:12;42.20;;;24.95;;
58472;SDS011;44775;51.564;5.460;2023-05-10T06:44:37;41.35;;;23.73;;
58472;SDS011;44775;51.564;5.460;2023-05-10T06:47:03;44.10;;;24.95;;
58472;SDS011;44775;51.564;5.460;2023-05-10T06:49:28;42.90;;;24.77;;
58472;SDS011;44775;51.564;5.460;2023-05-10T06:51:54;40.90;;;24.15;;
58472;SDS011;44775;51.564;5.460;2023-05-10T06:54:20;41.38;;;24.92;;
58472;SDS011;44775;51.564;5.460;2023-05-10T06:56:45;39.97;;;23.63;;
58472;SDS011;44775;51.564;5.460;2023-05-10T06:59:11;42.97;;;26.27;;
58472;SDS011;44775;51.564;5.460;2023-05-10T07:01:37;43.63;;;25.35;;
58472;SDS011;44775;51.564;5.460;2023-05-10T07:04:02;44.53;;;24.42;;
58472;SDS011;44775;51.564;5.460;2023-05-10T07:06:27;42.28;;;26.40;;
58472;SDS011;44775;51.564;5.460;2023-05-10T07:08:53;43.38;;;24.65;;
58472;SDS011;44775;51.564;5.460;2023-05-10T07:11:19;44.03;;;24.77;;
58472;SDS011;44775;51.564;5.460;2023-05-10T07:13:44;30.33;;;19.20;;
58472;SDS011;44775;51.564;5.460;2023-05-10T07:16:11;45.13;;;25.30;;
58472;SDS011;44775;51.564;5.460;2023-05-10T07:18:36;35.88;;;21.52;;
58472;SDS011;44775;51.564;5.460;2023-05-10T07:21:02;44.58;;;24.27;;
58472;SDS011;44775;51.564;5.460;2023-05-10T07:23:27;44.00;;;25.65;;
58472;SDS011;44775;51.564;5.460;2023-05-10T07:25:53;39.40;;;23.40;;
58472;SDS011;44775;51.564;5.460;2023-05-10T07:28:19;43.58;;;22.65;;
58472;SDS011;44775;51.564;5.460;2023-05-10T07:30:44;30.42;;;18.73;;
58472;SDS011;44775;51.564;5.460;2023-05-10T07:33:10;33.85;;;20.65;;
58472;SDS011;44775;51.564;5.460;2023-05-10T07:35:37;43.05;;;25.38;;
58472;SDS011;44775;51.564;5.460;2023-05-10T07:38:03;45.67;;;27.08;;
58472;SDS011;44775;51.564;5.460;2023-05-10T07:40:28;35.88;;;22.13;;
58472;SDS011;44775;51.564;5.460;2023-05-10T07:42:54;49.35;;;27.30;;
58472;SDS011;44775;51.564;5.460;2023-05-10T07:45:19;46.92;;;25.15;;
58472;SDS011;44775;51.564;5.460;2023-05-10T07:47:45;34.70;;;20.70;;
58472;SDS011;44775;51.564;5.460;2023-05-10T07:50:10;41.22;;;23.88;;
58472;SDS011;44775;51.564;5.460;2023-05-10T07:52:35;43.80;;;25.13;;
58472;SDS011;44775;51.564;5.460;2023-05-10T07:55:01;29.95;;;19.27;;
58472;SDS011;44775;51.564;5.460;2023-05-10T07:57:26;33.80;;;19.88;;
58472;SDS011;44775;51.564;5.460;2023-05-10T07:59:51;26.52;;;16.30;;
58472;SDS011;44775;51.564;5.460;2023-05-10T08:02:17;16.58;;;10.85;;
58472;SDS011;44775;51.564;5.460;2023-05-10T08:04:42;18.38;;;13.43;;
58472;SDS011;44775;51.564;5.460;2023-05-10T08:07:07;20.30;;;12.98;;
58472;SDS011;44775;51.564;5.460;2023-05-10T08:09:32;18.52;;;13.00;;
58472;SDS011;44775;51.564;5.460;2023-05-10T08:11:58;20.83;;;13.20;;
58472;SDS011;44775;51.564;5.460;2023-05-10T08:14:24;23.35;;;14.75;;
58472;SDS011;44775;51.564;5.460;2023-05-10T08:16:50;24.30;;;14.85;;
58472;SDS011;44775;51.564;5.460;2023-05-10T08:19:15;26.02;;;15.88;;
58472;SDS011;44775;51.564;5.460;2023-05-10T08:21:44;24.40;;;15.48;;
58472;SDS011;44775;51.564;5.460;2023-05-10T08:24:09;20.67;;;15.63;;
58472;SDS011;44775;51.564;5.460;2023-05-10T08:26:35;21.20;;;15.40;;
58472;SDS011;44775;51.564;5.460;2023-05-10T08:29:00;16.52;;;11.48;;
58472;SDS011;44775;51.564;5.460;2023-05-10T08:31:25;22.67;;;14.77;;
58472;SDS011;44775;51.564;5.460;2023-05-10T08:33:51;18.70;;;12.95;;
58472;SDS011;44775;51.564;5.460;2023-05-10T08:36:17;19.48;;;15.13;;
58472;SDS011;44775;51.564;5.460;2023-05-10T08:38:46;17.73;;;12.65;;
58472;SDS011;44775;51.564;5.460;2023-05-10T08:41:20;18.05;;;13.60;;
58472;SDS011;44775;51.564;5.460;2023-05-10T08:43:49;19.13;;;14.15;;
58472;SDS011;44775;51.564;5.460;2023-05-10T08:46:16;19.63;;;13.13;;
58472;SDS011;44775;51.564;5.460;2023-05-10T08:48:43;15.50;;;10.73;;
58472;SDS011;44775;51.564;5.460;2023-05-10T08:51:09;17.27;;;11.80;;
58472;SDS011;44775;51.564;5.460;2023-05-10T08:53:38;17.00;;;10.73;;
58472;SDS011;44775;51.564;5.460;2023-05-10T08:56:04;16.48;;;10.82;;
58472;SDS011;44775;51.564;5.460;2023-05-10T08:58:30;15.15;;;10.40;;
58472;SDS011;44775;51.564;5.460;2023-05-10T09:00:56;15.70;;;11.18;;
58472;SDS011;44775;51.564;5.460;2023-05-10T09:03:22;18.38;;;12.02;;
58472;SDS011;44775;51.564;5.460;2023-05-10T09:05:48;17.92;;;13.48;;
58472;SDS011;44775;51.564;5.460;2023-05-10T09:08:14;17.63;;;13.68;;
58472;SDS011;44775;51.564;5.460;2023-05-10T09:10:41;17.60;;;11.70;;
58472;SDS011;44775;51.564;5.460;2023-05-10T09:13:09;17.73;;;12.32;;
58472;SDS011;44775;51.564;5.460;2023-05-10T09:15:35;15.75;;;11.68;;
58472;SDS011;44775;51.564;5.460;2023-05-10T09:18:01;15.07;;;10.25;;
58472;SDS011;44775;51.564;5.460;2023-05-10T09:20:27;12.50;;;8.75;;
58472;SDS011;44775;51.564;5.460;2023-05-10T09:22:52;13.25;;;9.23;;
58472;SDS011;44775;51.564;5.460;2023-05-10T09:25:18;12.13;;;8.45;;
58472;SDS011;44775;51.564;5.460;2023-05-10T09:27:44;12.23;;;8.85;;
58472;SDS011;44775;51.564;5.460;2023-05-10T09:30:23;12.82;;;8.90;;
58472;SDS011;44775;51.564;5.460;2023-05-10T09:32:49;11.15;;;8.85;;
58472;SDS011;44775;51.564;5.460;2023-05-10T09:35:18;10.70;;;8.10;;
58472;SDS011;44775;51.564;5.460;2023-05-10T09:37:45;18.90;;;10.38;;
58472;SDS011;44775;51.564;5.460;2023-05-10T09:40:15;10.80;;;8.90;;
58472;SDS011;44775;51.564;5.460;2023-05-10T09:45:17;12.98;;;9.13;;
58472;SDS011;44775;51.564;5.460;2023-05-10T09:47:42;12.55;;;8.10;;
58472;SDS011;44775;51.564;5.460;2023-05-10T09:50:08;10.65;;;8.07;;
58472;SDS011;44775;51.564;5.460;2023-05-10T09:52:53;11.27;;;8.30;;
58472;SDS011;44775;51.564;5.460;2023-05-10T09:55:45;12.85;;;7.53;;
58472;SDS011;44775;51.564;5.460;2023-05-10T09:58:11;11.43;;;7.32;;
58472;SDS011;44775;51.564;5.460;2023-05-10T10:00:38;9.55;;;7.30;;
58472;SDS011;44775;51.564;5.460;2023-05-10T10:03:05;12.88;;;7.40;;
58472;SDS011;44775;51.564;5.460;2023-05-10T10:05:34;8.07;;;4.93;;
58472;SDS011;44775;51.564;5.460;2023-05-10T10:08:02;12.30;;;5.22;;
58472;SDS011;44775;51.564;5.460;2023-05-10T10:10:28;7.30;;;5.57;;
58472;SDS011;44775;51.564;5.460;2023-05-10T10:12:54;9.40;;;6.93;;
58472;SDS011;44775;51.564;5.460;2023-05-10T10:15:20;11.05;;;7.20;;
58472;SDS011;44775;51.564;5.460;2023-05-10T10:17:46;9.38;;;6.82;;
58472;SDS011;44775;51.564;5.460;2023-05-10T10:20:13;9.52;;;6.80;;
58472;SDS011;44775;51.564;5.460;2023-05-10T10:22:39;8.07;;;6.40;;
58472;SDS011;44775;51.564;5.460;2023-05-10T10:25:05;8.52;;;6.47;;
58472;SDS011;44775;51.564;5.460;2023-05-10T10:36:01;9.15;;;6.50;;
58472;SDS011;44775;51.564;5.460;2023-05-10T10:41:28;9.25;;;6.68;;
58472;SDS011;44775;51.564;5.460;2023-05-10T10:47:22;8.93;;;7.00;;
58472;SDS011;44775;51.564;5.460;2023-05-10T11:02:50;6.47;;;4.43;;
58472;SDS011;44775;51.564;5.460;2023-05-10T11:05:40;9.07;;;6.53;;
58472;SDS011;44775;51.564;5.460;2023-05-10T11:08:26;6.38;;;5.03;;
58472;SDS011;44775;51.564;5.460;2023-05-10T11:13:43;4.80;;;3.88;;
58472;SDS011;44775;51.564;5.460;2023-05-10T11:16:10;11.93;;;8.38;;
58472;SDS011;44775;51.564;5.460;2023-05-10T11:18:37;8.18;;;5.53;;
58472;SDS011;44775;51.564;5.460;2023-05-10T11:21:02;7.97;;;5.70;;
58472;SDS011;44775;51.564;5.460;2023-05-10T11:23:31;9.63;;;6.57;;
58472;SDS011;44775;51.564;5.460;2023-05-10T11:26:08;16.27;;;11.68;;
58472;SDS011;44775;51.564;5.460;2023-05-10T11:28:43;18.02;;;12.13;;
58472;SDS011;44775;51.564;5.460;2023-05-10T11:31:15;9.75;;;7.50;;
58472;SDS011;44775;51.564;5.460;2023-05-10T11:33:42;10.00;;;7.93;;
58472;SDS011;44775;51.564;5.460;2023-05-10T11:36:12;8.43;;;6.15;;
58472;SDS011;44775;51.564;5.460;2023-05-10T11:38:40;12.13;;;8.52;;
58472;SDS011;44775;51.564;5.460;2023-05-10T11:41:07;13.88;;;10.60;;
58472;SDS011;44775;51.564;5.460;2023-05-10T11:46:01;15.10;;;11.52;;
58472;SDS011;44775;51.564;5.460;2023-05-10T11:48:29;16.48;;;11.85;;
58472;SDS011;44775;51.564;5.460;2023-05-10T11:50:54;11.75;;;7.28;;
58472;SDS011;44775;51.564;5.460;2023-05-10T11:53:22;6.20;;;4.82;;
58472;SDS011;44775;51.564;5.460;2023-05-10T11:55:47;13.00;;;8.98;;
58472;SDS011;44775;51.564;5.460;2023-05-10T11:58:13;16.05;;;10.60;;
58472;SDS011;44775;51.564;5.460;2023-05-10T12:00:38;12.05;;;9.43;;
58472;SDS011;44775;51.564;5.460;2023-05-10T12:03:04;12.88;;;8.55;;
58472;SDS011;44775;51.564;5.460;2023-05-10T12:05:31;10.60;;;8.43;;
58472;SDS011;44775;51.564;5.460;2023-05-10T12:08:13;18.08;;;12.93;;
58472;SDS011;44775;51.564;5.460;2023-05-10T12:10:40;15.40;;;11.82;;
58472;SDS011;44775;51.564;5.460;2023-05-10T12:13:10;12.52;;;7.22;;
58472;SDS011;44775;51.564;5.460;2023-05-10T12:15:37;16.15;;;11.73;;
58472;SDS011;44775;51.564;5.460;2023-05-10T12:18:02;13.27;;;11.88;;
58472;SDS011;44775;51.564;5.460;2023-05-10T12:20:27;13.40;;;11.85;;
58472;SDS011;44775;51.564;5.460;2023-05-10T12:22:54;16.58;;;13.63;;
58472;SDS011;44775;51.564;5.460;2023-05-10T12:25:21;15.77;;;14.13;;
58472;SDS011;44775;51.564;5.460;2023-05-10T12:27:51;14.60;;;12.70;;
58472;SDS011;44775;51.564;5.460;2023-05-10T12:30:22;17.58;;;14.27;;
58472;SDS011;44775;51.564;5.460;2023-05-10T12:32:48;14.70;;;12.93;;
58472;SDS011;44775;51.564;5.460;2023-05-10T12:35:14;16.80;;;14.82;;
58472;SDS011;44775;51.564;5.460;2023-05-10T12:37:41;17.08;;;15.32;;
58472;SDS011;44775;51.564;5.460;2023-05-10T12:40:10;18.17;;;16.27;;
58472;SDS011;44775;51.564;5.460;2023-05-10T12:42:36;19.80;;;17.48;;
58472;SDS011;44775;51.564;5.460;2023-05-10T12:45:03;21.20;;;18.27;;
58472;SDS011;44775;51.564;5.460;2023-05-10T12:47:30;20.20;;;17.95;;
58472;SDS011;44775;51.564;5.460;2023-05-10T12:49:56;22.05;;;17.02;;
58472;SDS011;44775;51.564;5.460;2023-05-10T12:52:22;18.98;;;16.88;;
58472;SDS011;44775;51.564;5.460;2023-05-10T12:54:47;19.63;;;17.50;;
58472;SDS011;44775;51.564;5.460;2023-05-10T12:57:12;17.95;;;16.13;;
58472;SDS011;44775;51.564;5.460;2023-05-10T12:59:38;17.08;;;15.27;;
58472;SDS011;44775;51.564;5.460;2023-05-10T13:02:03;15.98;;;14.27;;
58472;SDS011;44775;51.564;5.460;2023-05-10T13:04:29;17.83;;;15.48;;
58472;SDS011;44775;51.564;5.460;2023-05-10T13:06:54;16.25;;;14.55;;
58472;SDS011;44775;51.564;5.460;2023-05-10T13:09:23;16.23;;;14.63;;
58472;SDS011;44775;51.564;5.460;2023-05-10T13:11:49;16.83;;;15.07;;
58472;SDS011;44775;51.564;5.460;2023-05-10T13:14:15;20.70;;;18.50;;
58472;SDS011;44775;51.564;5.460;2023-05-10T13:16:40;18.10;;;16.20;;
58472;SDS011;44775;51.564;5.460;2023-05-10T13:19:05;18.02;;;16.13;;
58472;SDS011;44775;51.564;5.460;2023-05-10T13:21:32;16.08;;;13.15;;
58472;SDS011;44775;51.564;5.460;2023-05-10T13:23:57;14.88;;;13.10;;
58472;SDS011;44775;51.564;5.460;2023-05-10T13:26:23;18.90;;;15.27;;
58472;SDS011;44775;51.564;5.460;2023-05-10T13:28:48;17.50;;;15.43;;
58472;SDS011;44775;51.564;5.460;2023-05-10T13:31:16;16.48;;;14.77;;
58472;SDS011;44775;51.564;5.460;2023-05-10T13:33:41;10.98;;;9.30;;
58472;SDS011;44775;51.564;5.460;2023-05-10T13:36:06;14.65;;;12.18;;
58472;SDS011;44775;51.564;5.460;2023-05-10T13:38:32;10.35;;;8.98;;
58472;SDS011;44775;51.564;5.460;2023-05-10T13:40:57;9.50;;;6.78;;
58472;SDS011;44775;51.564;5.460;2023-05-10T13:43:23;8.88;;;7.90;;
58472;SDS011;44775;51.564;5.460;2023-05-10T13:45:48;11.68;;;9.93;;
58472;SDS011;44775;51.564;5.460;2023-05-10T13:48:14;9.63;;;8.70;;
58472;SDS011;44775;51.564;5.460;2023-05-10T13:50:39;8.80;;;7.90;;
58472;SDS011;44775;51.564;5.460;2023-05-10T13:53:05;7.07;;;6.10;;
58472;SDS011;44775;51.564;5.460;2023-05-10T13:55:30;8.38;;;5.88;;
58472;SDS011;44775;51.564;5.460;2023-05-10T13:57:55;10.40;;;8.85;;
58472;SDS011;44775;51.564;5.460;2023-05-10T14:00:21;11.90;;;8.65;;
58472;SDS011;44775;51.564;5.460;2023-05-10T14:02:46;5.03;;;4.55;;
58472;SDS011;44775;51.564;5.460;2023-05-10T14:05:12;9.63;;;8.63;;
58472;SDS011;44775;51.564;5.460;2023-05-10T14:07:37;13.32;;;10.93;;
58472;SDS011;44775;51.564;5.460;2023-05-10T14:10:03;10.45;;;8.80;;
58472;SDS011;44775;51.564;5.460;2023-05-10T14:12:28;4.03;;;3.63;;
58472;SDS011;44775;51.564;5.460;2023-05-10T14:14:55;5.10;;;4.53;;
58472;SDS011;44775;51.564;5.460;2023-05-10T14:17:20;4.10;;;3.03;;
58472;SDS011;44775;51.564;5.460;2023-05-10T14:19:45;8.35;;;6.22;;
58472;SDS011;44775;51.564;5.460;2023-05-10T14:22:12;7.65;;;5.05;;
58472;SDS011;44775;51.564;5.460;2023-05-10T14:24:37;9.45;;;6.38;;
58472;SDS011;44775;51.564;5.460;2023-05-10T14:27:03;10.20;;;7.75;;
58472;SDS011;44775;51.564;5.460;2023-05-10T14:29:28;9.48;;;8.23;;
58472;SDS011;44775;51.564;5.460;2023-05-10T14:31:53;12.13;;;9.80;;
58472;SDS011;44775;51.564;5.460;2023-05-10T14:34:18;12.23;;;9.98;;
58472;SDS011;44775;51.564;5.460;2023-05-10T14:36:44;12.00;;;10.70;;
58472;SDS011;44775;51.564;5.460;2023-05-10T14:39:10;15.20;;;11.20;;
58472;SDS011;44775;51.564;5.460;2023-05-10T14:41:37;15.27;;;11.82;;
58472;SDS011;44775;51.564;5.460;2023-05-10T14:44:04;16.65;;;12.40;;
58472;SDS011;44775;51.564;5.460;2023-05-10T14:46:29;14.68;;;12.52;;
58472;SDS011;44775;51.564;5.460;2023-05-10T14:48:55;15.60;;;12.20;;
58472;SDS011;44775;51.564;5.460;2023-05-10T14:51:20;16.27;;;12.50;;
58472;SDS011;44775;51.564;5.460;2023-05-10T14:53:47;15.85;;;13.60;;
58472;SDS011;44775;51.564;5.460;2023-05-10T14:56:13;17.48;;;12.57;;
58472;SDS011;44775;51.564;5.460;2023-05-10T14:58:38;19.55;;;14.32;;
58472;SDS011;44775;51.564;5.460;2023-05-10T15:01:03;19.70;;;13.95;;
58472;SDS011;44775;51.564;5.460;2023-05-10T15:03:29;21.48;;;15.27;;
58472;SDS011;44775;51.564;5.460;2023-05-10T15:05:54;18.50;;;15.23;;
58472;SDS011;44775;51.564;5.460;2023-05-10T15:08:21;18.65;;;15.70;;
58472;SDS011;44775;51.564;5.460;2023-05-10T15:10:46;20.27;;;16.05;;
58472;SDS011;44775;51.564;5.460;2023-05-10T15:13:11;23.30;;;17.10;;